Time;durP1;ratioP1;P1;durP2;ratioP2;P2;SDS_P1;SDS_P2;PMS_P1;PMS_P2;Temp;Humidity;BMP_temperature;BMP_pressure;BME280_temperature;BME280_humidity;BME280_pressure;Samples;Min_cycle;Max_cycle;Signal;HPM_P1;HPM_P2
2022/11/09 00:01:03;;;;;;;;;;;;;;;25.48;44.81;94023.81;4918679;29;7219;-62
2022/11/09 00:03:36;;;;;;;;;;;;;;;25.49;45.43;94030.84;4929299;29;7346;-62
2022/11/09 00:06:18;;;;;;;;;;;;;;;25.49;45.03;94017.78;4948051;28;7372;-62
2022/11/09 00:08:44;;;;;;;;;;;;;;;25.49;45.13;94017.78;4921725;29;7259;-62
2022/11/09 00:11:17;;;;;;;;;;;;;;;25.48;45.29;94019.06;4933442;28;7698;-62
2022/11/09 00:14:00;;;;;;;;;;;;;;;25.48;45.05;94013.56;4934489;29;7171;-62
2022/11/09 00:16:35;;;;;;;;;;;;;;;25.49;45.10;94017.06;4946064;28;7114;-62
2022/11/09 00:19:05;;;;;;;;;;;;;;;25.50;45.17;94010.28;4928003;28;7192;-62
2022/11/09 00:21:33;;;;;;;;;;;;;;;25.48;44.93;94016.31;4913059;29;7622;-62
2022/11/09 00:24:06;;;;;;;;;;;;;;;25.46;44.68;94018.09;4939279;28;8662;-62
2022/11/09 00:26:32;;;;;;;;;;;;;;;25.48;44.77;94023.81;4937631;28;7043;-62
2022/11/09 00:28:58;;;;;;;;;;;;;;;25.49;44.44;94014.31;4930962;29;7290;-62
2022/11/09 00:31:25;;;;;;;;;;;;;;;25.49;44.73;94015.03;4918406;29;7039;-62
2022/11/09 00:34:18;;;;;;;;;;;;;;;25.48;44.50;94008.06;4924228;29;7253;-62
2022/11/09 00:36:53;;;;;;;;;;;;;;;25.48;45.34;93999.03;4889228;29;7340;-62
2022/11/09 00:39:29;;;;;;;;;;;;;;;25.46;44.50;93999.56;4886415;29;8453;-62
2022/11/09 00:42:06;;;;;;;;;;;;;;;25.46;45.29;93999.56;4898183;29;8210;-62
2022/11/09 00:44:50;;;;;;;;;;;;;;;25.44;45.07;93999.34;4897577;29;8899;-62
2022/11/09 00:47:37;;;;;;;;;;;;;;;25.46;44.66;94001.56;4898600;29;7050;-62
2022/11/09 00:50:24;;;;;;;;;;;;;;;25.40;44.62;94007.84;4904686;29;9086;-62
2022/11/09 00:53:19;;;;;;;;;;;;;;;25.41;44.73;94011.34;4897264;29;7059;-62
2022/11/09 00:56:01;;;;;;;;;;;;;;;25.41;44.77;94003.09;4830811;29;7366;-62
2022/11/09 00:58:40;;;;;;;;;;;;;;;25.39;45.65;93995.38;4826285;29;7050;-62
2022/11/09 01:01:14;;;;;;;;;;;;;;;25.38;45.43;93999.38;4840635;29;7187;-62
2022/11/09 01:03:41;;;;;;;;;;;;;;;25.39;44.99;93998.13;4834260;29;8746;-62
2022/11/09 01:06:18;;;;;;;;;;;;;;;25.43;45.23;94000.59;4826133;29;9136;-62
2022/11/09 01:08:54;;;;;;;;;;;;;;;25.39;45.24;93983.59;4841169;29;7862;-62
2022/11/09 01:11:22;;;;;;;;;;;;;;;25.35;44.80;93972.16;4829735;29;7306;-62
2022/11/09 01:14:02;;;;;;;;;;;;;;;25.34;45.28;93978.91;4852725;29;8914;-62
2022/11/09 01:16:29;;;;;;;;;;;;;;;25.31;45.49;93982.72;4844706;29;8357;-62
2022/11/09 01:18:57;;;;;;;;;;;;;;;25.32;45.04;93975.91;4859486;29;7050;-62
2022/11/09 01:21:25;;;;;;;;;;;;;;;25.33;44.82;93980.19;4844934;29;7046;-62
2022/11/09 01:23:51;;;;;;;;;;;;;;;25.32;45.20;93981.44;4843208;29;7355;-62
2022/11/09 01:26:19;;;;;;;;;;;;;;;25.33;44.82;93985.69;4859388;29;9304;-62
2022/11/09 01:28:47;;;;;;;;;;;;;;;25.35;45.50;93988.66;4858989;29;8540;-62
2022/11/09 01:31:20;;;;;;;;;;;;;;;25.34;44.79;93993.41;4865775;29;7305;-62
2022/11/09 01:34:03;;;;;;;;;;;;;;;25.32;44.97;93990.44;4912271;29;7058;-62
2022/11/09 01:36:31;;;;;;;;;;;;;;;25.31;45.08;93975.19;4931802;28;7507;-62
2022/11/09 01:38:59;;;;;;;;;;;;;;;25.33;45.62;93972.66;4919549;29;9116;-62
2022/11/09 01:41:30;;;;;;;;;;;;;;;25.34;45.27;93970.63;4933185;28;9303;-62
2022/11/09 01:44:02;;;;;;;;;;;;;;;25.32;45.66;93964.91;4922593;29;7294;-62
2022/11/09 01:46:48;;;;;;;;;;;;;;;25.32;45.55;93956.66;4931359;28;7636;-62
2022/11/09 01:49:19;;;;;;;;;;;;;;;25.30;46.11;93970.19;4942055;28;7057;-62
2022/11/09 01:51:56;;;;;;;;;;;;;;;25.32;45.44;93984.19;4917878;29;7330;-62
2022/11/09 01:54:28;;;;;;;;;;;;;;;25.31;44.84;93996.47;4933176;28;7249;-62
2022/11/09 01:57:26;;;;;;;;;;;;;;;25.31;45.40;94004.72;4942470;28;9287;-62
2022/11/09 02:00:31;;;;;;;;;;;;;;;25.32;44.74;94001.44;4890688;29;8967;-62
2022/11/09 02:03:38;;;;;;;;;;;;;;;25.30;44.66;93997.72;4861203;29;7064;-62
2022/11/09 02:06:09;;;;;;;;;;;;;;;25.32;44.90;94001.44;4840927;29;9575;-62
2022/11/09 02:08:35;;;;;;;;;;;;;;;25.31;45.65;93994.47;4834483;29;7420;-62
2022/11/09 02:11:10;;;;;;;;;;;;;;;25.30;44.88;93986.72;4830640;29;7318;-62
2022/11/09 02:13:52;;;;;;;;;;;;;;;25.29;45.67;93990.75;4840128;29;7293;-62
2022/11/09 02:16:29;;;;;;;;;;;;;;;25.26;45.68;93991.75;4839659;29;7509;-62
2022/11/09 02:19:03;;;;;;;;;;;;;;;25.30;45.46;93994.97;4839990;29;8833;-62
2022/11/09 02:21:31;;;;;;;;;;;;;;;25.29;45.42;93996.25;4824028;29;7259;-62
2022/11/09 02:23:59;;;;;;;;;;;;;;;25.25;45.10;93984.78;4824922;29;7095;-62
2022/11/09 02:26:37;;;;;;;;;;;;;;;25.25;45.26;93990.28;4840380;29;8628;-62
2022/11/09 02:29:09;;;;;;;;;;;;;;;25.22;45.68;93994.06;4824904;29;8866;-62
2022/11/09 02:31:42;;;;;;;;;;;;;;;25.22;45.87;93989.31;4839026;29;7019;-62
2022/11/09 02:34:20;;;;;;;;;;;;;;;25.24;44.94;94000.53;4826462;29;7027;-62
2022/11/09 02:37:00;;;;;;;;;;;;;;;25.24;45.92;94000.53;4872371;29;7108;-62
2022/11/09 02:39:27;;;;;;;;;;;;;;;25.24;45.38;94000.53;4922285;29;7324;-62
2022/11/09 02:42:10;;;;;;;;;;;;;;;25.23;45.43;93993.53;4933757;29;7517;-62
2022/11/09 02:44:50;;;;;;;;;;;;;;;25.22;45.32;93983.06;4922546;29;8480;-62
2022/11/09 02:47:18;;;;;;;;;;;;;;;25.21;45.21;93985.06;4928323;29;7048;-62
2022/11/09 02:49:57;;;;;;;;;;;;;;;25.20;45.14;93983.59;4931717;29;7041;-62
2022/11/09 02:52:41;;;;;;;;;;;;;;;25.22;45.25;93985.81;4915149;29;7028;-62
2022/11/09 02:55:12;;;;;;;;;;;;;;;25.19;45.60;93973.81;4930529;29;7197;-62
2022/11/09 02:57:38;;;;;;;;;;;;;;;25.21;45.94;93968.53;4925843;29;7214;-62
2022/11/09 03:00:10;;;;;;;;;;;;;;;25.23;45.40;93984.53;4917261;29;7299;-62
2022/11/09 03:02:46;;;;;;;;;;;;;;;25.20;45.09;93993.84;4925646;29;7046;-62
2022/11/09 03:05:14;;;;;;;;;;;;;;;25.20;45.17;93989.09;4915847;29;7692;-62
2022/11/09 03:07:42;;;;;;;;;;;;;;;25.19;45.21;93986.84;4917299;29;7034;-62
2022/11/09 03:10:13;;;;;;;;;;;;;;;25.21;45.21;93990.56;4909941;29;8965;-62
2022/11/09 03:12:42;;;;;;;;;;;;;;;25.19;44.92;93992.34;4927564;29;7529;-62
2022/11/09 03:15:09;;;;;;;;;;;;;;;25.18;45.51;93993.63;4926227;29;7341;-62
2022/11/09 03:17:46;;;;;;;;;;;;;;;25.18;45.81;94001.88;4924871;29;7303;-62
2022/11/09 03:20:12;;;;;;;;;;;;;;;25.16;45.25;93996.16;4926966;29;6920;-62
2022/11/09 03:22:38;;;;;;;;;;;;;;;25.18;45.33;93991.63;4917645;29;7002;-62
2022/11/09 03:25:07;;;;;;;;;;;;;;;25.17;45.71;93990.13;4928244;29;7379;-62
2022/11/09 03:27:33;;;;;;;;;;;;;;;25.16;45.80;93988.63;4941337;29;7217;-62
2022/11/09 03:29:58;;;;;;;;;;;;;;;25.18;45.65;93983.34;4923260;29;7019;-62
2022/11/09 03:32:33;;;;;;;;;;;;;;;25.19;45.35;93986.84;4922510;29;9365;-62
2022/11/09 03:35:02;;;;;;;;;;;;;;;25.20;45.57;93991.09;4924731;29;7270;-62
2022/11/09 03:37:32;;;;;;;;;;;;;;;25.16;46.07;93990.63;4915918;29;7075;-62
2022/11/09 03:40:09;;;;;;;;;;;;;;;25.17;45.27;93989.34;4913382;29;9338;-62
2022/11/09 03:42:43;;;;;;;;;;;;;;;25.17;45.90;93994.88;4911815;29;8162;-62
2022/11/09 03:45:12;;;;;;;;;;;;;;;25.16;45.23;93999.66;4927024;29;7026;-62
2022/11/09 03:47:45;;;;;;;;;;;;;;;25.17;45.57;94000.38;4921452;29;7122;-62
2022/11/09 03:50:20;;;;;;;;;;;;;;;25.17;45.65;94001.13;4923752;29;7426;-62
2022/11/09 03:52:57;;;;;;;;;;;;;;;25.17;45.22;94001.13;4923152;29;7014;-62
2022/11/09 03:55:52;;;;;;;;;;;;;;;25.20;45.95;94007.59;4927386;29;9535;-62
2022/11/09 03:58:37;;;;;;;;;;;;;;;25.21;45.81;94017.34;4890444;29;7118;-62
2022/11/09 04:01:15;;;;;;;;;;;;;;;25.18;45.23;94016.38;4890259;29;7225;-62
2022/11/09 04:03:49;;;;;;;;;;;;;;;25.18;45.97;94021.88;4889727;29;9000;-62
2022/11/09 04:06:24;;;;;;;;;;;;;;;25.19;45.49;94022.63;4882793;29;7343;-62
2022/11/09 04:09:18;;;;;;;;;;;;;;;25.19;46.12;94031.63;4879260;29;7061;-62
2022/11/09 04:11:52;;;;;;;;;;;;;;;25.18;45.66;94034.91;4887661;29;9186;-62
2022/11/09 04:14:21;;;;;;;;;;;;;;;25.16;45.67;94031.91;4893285;29;7318;-62
2022/11/09 04:16:55;;;;;;;;;;;;;;;25.16;45.83;94037.44;4881259;29;7061;-62
2022/11/09 04:19:38;;;;;;;;;;;;;;;25.15;45.93;94038.66;4893100;29;7039;-62
2022/11/09 04:22:06;;;;;;;;;;;;;;;25.17;46.06;94047.16;4891518;29;9034;-62
2022/11/09 04:24:32;;;;;;;;;;;;;;;25.15;46.05;94042.19;4891243;29;6992;-62
2022/11/09 04:26:59;;;;;;;;;;;;;;;25.15;45.79;94042.19;4865263;29;6987;-62
2022/11/09 04:29:28;;;;;;;;;;;;;;;25.14;45.67;94048.22;4878399;29;7086;-62
2022/11/09 04:32:05;;;;;;;;;;;;;;;25.15;45.98;94038.66;4897733;29;7221;-62
2022/11/09 04:34:34;;;;;;;;;;;;;;;25.17;46.05;94047.16;4906335;29;7277;-62
2022/11/09 04:37:08;;;;;;;;;;;;;;;25.16;45.33;94053.94;4924985;29;7115;-63
2022/11/09 04:39:42;;;;;;;;;;;;;;;25.17;46.04;94058.16;4931034;29;8702;-63
2022/11/09 04:42:34;;;;;;;;;;;;;;;25.16;45.17;94060.19;4945472;28;9148;-63
2022/11/09 04:45:02;;;;;;;;;;;;;;;25.14;45.84;94059.94;4918840;29;9139;-62
2022/11/09 04:47:29;;;;;;;;;;;;;;;25.16;45.26;94067.69;4914044;29;7206;-62
2022/11/09 04:49:55;;;;;;;;;;;;;;;25.15;46.17;94069.69;4929756;28;9306;-63
2022/11/09 04:52:22;;;;;;;;;;;;;;;25.16;45.81;94081.47;4932119;29;7129;-62
2022/11/09 04:54:56;;;;;;;;;;;;;;;25.15;46.11;94085.47;4947755;28;7605;-63
2022/11/09 04:57:35;;;;;;;;;;;;;;;25.14;45.19;94084.72;4925941;29;9331;-63
2022/11/09 05:00:03;;;;;;;;;;;;;;;25.14;45.42;94083.97;4942506;28;7755;-63
2022/11/09 05:02:37;;;;;;;;;;;;;;;25.13;45.62;94088.72;4917547;29;7171;-62
2022/11/09 05:05:21;;;;;;;;;;;;;;;25.13;46.02;94088.72;4912296;29;6947;-63
2022/11/09 05:08:08;;;;;;;;;;;;;;;25.15;45.29;94096.47;4922800;29;7104;-62
2022/11/09 05:10:35;;;;;;;;;;;;;;;25.15;45.79;94099.22;4927037;29;9249;-62
2022/11/09 05:13:11;;;;;;;;;;;;;;;25.13;45.71;94094.25;4931802;29;7044;-63
2022/11/09 05:15:43;;;;;;;;;;;;;;;25.14;45.82;94101.22;4919434;29;7078;-62
2022/11/09 05:18:17;;;;;;;;;;;;;;;25.13;45.85;94094.25;4929201;28;7050;-63
2022/11/09 05:20:44;;;;;;;;;;;;;;;25.13;45.31;94099.00;4933176;29;7039;-63
2022/11/09 05:25:54;;;;;;;;;;;;;;;25.14;45.42;94095.00;4920251;29;7209;-62
2022/11/09 05:28:22;;;;;;;;;;;;;;;25.12;45.91;94094.75;4935256;29;7097;-63
2022/11/09 05:30:48;;;;;;;;;;;;;;;25.12;45.84;94095.47;4932832;29;7084;-63
2022/11/09 05:33:31;;;;;;;;;;;;;;;25.15;45.73;94108.22;4917577;29;7036;-62
2022/11/09 05:36:06;;;;;;;;;;;;;;;25.14;45.74;94117.00;4917447;29;7228;-63
2022/11/09 05:38:37;;;;;;;;;;;;;;;25.14;45.84;94119.75;4910340;29;7183;-63
2022/11/09 05:41:05;;;;;;;;;;;;;;;25.15;45.49;94119.25;4932704;29;9286;-62
2022/11/09 05:43:31;;;;;;;;;;;;;;;25.16;45.72;94125.50;4921453;29;7020;-62
2022/11/09 05:46:07;;;;;;;;;;;;;;;25.17;45.63;94132.47;4924255;29;7090;-62
2022/11/09 05:48:44;;;;;;;;;;;;;;;25.13;46.09;94138.28;4919066;29;9376;-63
2022/11/09 05:51:20;;;;;;;;;;;;;;;25.15;45.94;94140.50;4930911;28;6991;-63
2022/11/09 05:53:46;;;;;;;;;;;;;;;25.11;45.56;94146.28;4931478;28;7354;-62
2022/11/09 05:56:20;;;;;;;;;;;;;;;25.03;46.49;94148.13;4933030;28;9059;-63
2022/11/09 05:58:48;;;;;;;;;;;;;;;25.10;46.22;94155.06;4917972;29;7601;-63
2022/11/09 06:01:19;;;;;;;;;;;;;;;25.16;45.73;94153.78;4927203;29;9789;-62
2022/11/09 06:03:49;;;;;;;;;;;;;;;25.18;45.48;94156.00;4914991;29;7294;-62
2022/11/09 06:06:28;;;;;;;;;;;;;;;25.18;45.71;94158.75;4927243;29;7029;-63
2022/11/09 06:08:57;;;;;;;;;;;;;;;25.18;45.42;94164.25;4926868;29;8709;-62
2022/11/09 06:11:45;;;;;;;;;;;;;;;25.23;44.95;94163.44;4929301;28;7272;-63
2022/11/09 06:14:12;;;;;;;;;;;;;;;25.24;44.99;94164.94;4931676;29;6931;-63
2022/11/09 06:16:47;;;;;;;;;;;;;;;25.21;45.49;94163.22;4926888;29;7116;-63
2022/11/09 06:19:27;;;;;;;;;;;;;;;25.21;44.93;94172.22;4928132;29;7292;-63
2022/11/09 06:21:53;;;;;;;;;;;;;;;25.22;45.18;94179.22;4914635;29;7451;-62
2022/11/09 06:24:19;;;;;;;;;;;;;;;25.23;45.52;94190.97;4917510;29;7081;-62
2022/11/09 06:26:45;;;;;;;;;;;;;;;25.19;45.19;94187.75;4939052;28;7353;-63
2022/11/09 06:29:11;;;;;;;;;;;;;;;25.12;44.83;94191.09;4918830;29;7030;-63
2022/11/09 06:31:41;;;;;;;;;;;;;;;25.08;44.89;94198.84;4916412;29;7527;-62
2022/11/09 06:34:08;;;;;;;;;;;;;;;25.10;45.05;94197.06;4928235;29;9344;-62
2022/11/09 06:36:33;;;;;;;;;;;;;;;25.11;45.62;94200.59;4923490;29;7164;-62
2022/11/09 06:39:01;;;;;;;;;;;;;;;25.10;45.36;94205.34;4917071;29;7109;-63
2022/11/09 06:41:34;;;;;;;;;;;;;;;25.14;44.89;94205.06;4911366;29;8701;-63
2022/11/09 06:44:00;;;;;;;;;;;;;;;25.18;45.14;94200.03;4909636;29;7168;-63
2022/11/09 06:46:27;;;;;;;;;;;;;;;25.21;45.90;94210.75;4930423;28;7104;-62
2022/11/09 06:48:58;;;;;;;;;;;;;;;25.23;45.76;94213.00;4921938;29;7574;-62
2022/11/09 06:51:31;;;;;;;;;;;;;;;25.25;44.87;94227.00;4925396;29;7228;-62
2022/11/09 06:53:58;;;;;;;;;;;;;;;25.22;45.00;94223.28;4908553;29;7267;-62
2022/11/09 06:56:24;;;;;;;;;;;;;;;25.22;44.74;94217.00;4911783;29;7096;-62
2022/11/09 06:58:55;;;;;;;;;;;;;;;25.22;44.55;94215.00;4908169;29;7045;-62
2022/11/09 07:01:26;;;;;;;;;;;;;;;25.22;45.33;94212.25;4914602;29;9325;-62
2022/11/09 07:03:54;;;;;;;;;;;;;;;25.20;44.99;94214.78;4921987;29;7242;-62
2022/11/09 07:06:25;;;;;;;;;;;;;;;25.21;44.90;94215.50;4908999;29;7226;-62
2022/11/09 07:08:57;;;;;;;;;;;;;;;25.22;44.57;94211.50;4914743;29;7254;-62
2022/11/09 07:11:26;;;;;;;;;;;;;;;25.19;45.46;94212.53;4915028;29;9018;-63
2022/11/09 07:13:52;;;;;;;;;;;;;;;25.21;45.25;94208.00;4926080;29;8738;-62
2022/11/09 07:16:19;;;;;;;;;;;;;;;25.23;45.15;94208.22;4914688;29;7320;-62
2022/11/09 07:18:45;;;;;;;;;;;;;;;25.22;44.98;94211.50;4926295;29;7404;-62
2022/11/09 07:21:12;;;;;;;;;;;;;;;25.22;45.69;94214.25;4909794;29;8245;-62
2022/11/09 07:23:39;;;;;;;;;;;;;;;25.18;46.30;94213.78;4918329;29;8204;-62
2022/11/09 07:26:07;;;;;;;;;;;;;;;25.18;46.30;94209.03;4912264;29;9413;-62
2022/11/09 07:28:36;;;;;;;;;;;;;;;25.18;46.28;94216.53;4908627;29;8369;-63
2022/11/09 07:31:02;;;;;;;;;;;;;;;25.20;46.34;94222.28;4900540;29;7788;-63
2022/11/09 07:33:29;;;;;;;;;;;;;;;25.19;46.60;94226.28;4912179;29;9177;-63
2022/11/09 07:36:15;;;;;;;;;;;;;;;25.22;46.03;94217.00;4915412;29;7040;-63
2022/11/09 07:38:51;;;;;;;;;;;;;;;25.21;46.84;94216.25;4932370;29;7301;-63
2022/11/09 07:41:25;;;;;;;;;;;;;;;25.21;45.71;94207.25;4927980;29;9337;-63
2022/11/09 07:43:53;;;;;;;;;;;;;;;25.19;46.90;94215.28;4921827;29;7253;-63
2022/11/09 07:46:19;;;;;;;;;;;;;;;25.18;46.06;94211.78;4920539;29;7029;-63
2022/11/09 07:49:04;;;;;;;;;;;;;;;25.21;46.27;94207.25;4919230;29;7246;-62
2022/11/09 07:51:30;;;;;;;;;;;;;;;25.21;46.52;94204.50;4906809;29;10978;-62
2022/11/09 07:53:59;;;;;;;;;;;;;;;25.21;46.07;94194.25;4915425;29;9487;-63
2022/11/09 07:56:31;;;;;;;;;;;;;;;25.21;46.17;94182.47;4922520;29;7266;-63
2022/11/09 07:59:02;;;;;;;;;;;;;;;25.21;45.56;94190.75;4915746;29;8742;-63
2022/11/09 08:01:45;;;;;;;;;;;;;;;25.18;46.32;94173.25;4918381;29;7151;-63
2022/11/09 08:04:13;;;;;;;;;;;;;;;25.16;45.89;94175.03;4926056;29;9789;-63
2022/11/09 08:06:39;;;;;;;;;;;;;;;25.18;46.16;94175.25;4913921;29;7273;-63
2022/11/09 08:09:11;;;;;;;;;;;;;;;25.19;46.25;94180.25;4940247;29;7285;-63
2022/11/09 08:11:37;;;;;;;;;;;;;;;25.17;45.79;94185.53;4921300;29;9041;-63
2022/11/09 08:14:24;;;;;;;;;;;;;;;25.19;45.68;94179.50;4920306;29;9170;-63
2022/11/09 08:16:51;;;;;;;;;;;;;;;25.17;45.35;94180.00;4928805;29;7073;-63
2022/11/09 08:19:44;;;;;;;;;;;;;;;25.17;45.73;94185.53;4928907;29;8663;-63
2022/11/09 08:22:10;;;;;;;;;;;;;;;25.16;46.00;94183.28;4938714;28;7481;-63
2022/11/09 08:24:36;;;;;;;;;;;;;;;25.16;45.81;94192.31;4927874;29;6986;-63
2022/11/09 08:27:07;;;;;;;;;;;;;;;25.14;45.59;94183.06;4923889;29;7251;-63
2022/11/09 08:29:33;;;;;;;;;;;;;;;25.14;45.81;94178.28;4937443;29;9123;-63
2022/11/09 08:31:59;;;;;;;;;;;;;;;25.13;45.58;94185.06;4930408;29;7033;-63
2022/11/09 08:34:31;;;;;;;;;;;;;;;25.12;45.99;94194.56;4918726;29;7196;-63
2022/11/09 08:37:06;;;;;;;;;;;;;;;25.13;46.43;94198.81;4925986;29;10229;-63
2022/11/09 08:39:32;;;;;;;;;;;;;;;25.14;45.83;94194.06;4952601;28;7217;-63
2022/11/09 08:42:10;;;;;;;;;;;;;;;25.15;45.59;94179.03;4920572;29;7199;-63
2022/11/09 08:44:48;;;;;;;;;;;;;;;25.15;45.90;94179.03;4918841;29;10594;-63
2022/11/09 08:47:29;;;;;;;;;;;;;;;25.15;45.69;94168.03;4918378;29;7256;-63
2022/11/09 08:50:13;;;;;;;;;;;;;;;25.16;46.09;94173.03;4926899;29;8970;-63
2022/11/09 08:53:23;;;;;;;;;;;;;;;25.15;46.31;94174.28;4916645;29;9070;-63
2022/11/09 08:55:50;;;;;;;;;;;;;;;25.14;46.07;94166.53;4909956;29;8764;-63
2022/11/09 08:58:17;;;;;;;;;;;;;;;25.14;45.62;94163.78;4934852;29;7858;-63
2022/11/09 09:00:51;;;;;;;;;;;;;;;25.10;46.13;94157.81;4937620;29;7262;-63
2022/11/09 09:03:20;;;;;;;;;;;;;;;25.10;45.52;94155.78;4932604;28;8746;-63
2022/11/09 09:05:50;;;;;;;;;;;;;;;25.10;46.09;94163.31;4940512;28;7030;-63
2022/11/09 09:08:21;;;;;;;;;;;;;;;25.07;46.19;94153.34;4923894;29;7268;-63
2022/11/09 09:10:49;;;;;;;;;;;;;;;25.12;45.85;94163.56;4925747;29;7222;-63
2022/11/09 09:13:17;;;;;;;;;;;;;;;25.11;46.22;94164.81;4937896;28;7101;-63
2022/11/09 09:15:47;;;;;;;;;;;;;;;25.13;45.71;94182.31;4925798;29;7880;-63
2022/11/09 09:18:47;;;;;;;;;;;;;;;25.13;46.25;94179.56;4918071;29;7346;-63
2022/11/09 09:21:23;;;;;;;;;;;;;;;25.11;45.81;94175.81;4889032;29;8487;-63
2022/11/09 09:23:49;;;;;;;;;;;;;;;25.06;45.65;94169.09;4900943;29;7019;-63
2022/11/09 09:26:16;;;;;;;;;;;;;;;25.07;46.25;94172.59;4887188;29;9024;-63
2022/11/09 09:28:42;;;;;;;;;;;;;;;25.10;45.72;94166.09;4883867;29;7231;-63
2022/11/09 09:31:10;;;;;;;;;;;;;;;25.10;45.62;94171.59;4887858;29;7490;-63
2022/11/09 09:33:46;;;;;;;;;;;;;;;25.11;45.76;94168.31;4894160;29;7054;-63
2022/11/09 09:36:23;;;;;;;;;;;;;;;25.12;46.03;94167.03;4886749;29;7039;-63
2022/11/09 09:38:51;;;;;;;;;;;;;;;25.11;45.43;94175.81;4879303;29;7226;-63
2022/11/09 09:41:33;;;;;;;;;;;;;;;25.12;45.27;94169.78;4895391;29;7286;-63
2022/11/09 09:44:21;;;;;;;;;;;;;;;25.12;45.39;94171.81;4896614;29;7039;-63
2022/11/09 09:47:13;;;;;;;;;;;;;;;25.11;46.02;94170.31;4903841;29;7301;-69
2022/11/09 09:49:53;;;;;;;;;;;;;;;25.11;45.73;94171.06;4874954;29;7117;-69
2022/11/09 09:52:42;;;;;;;;;;;;;;;25.14;45.62;94172.06;4893725;29;7948;-68
2022/11/09 09:55:29;;;;;;;;;;;;;;;25.16;45.78;94172.28;4889390;29;7186;-70
2022/11/09 09:58:10;;;;;;;;;;;;;;;25.16;45.42;94164.78;4911864;29;9056;-69
2022/11/09 10:00:37;;;;;;;;;;;;;;;25.14;45.73;94175.53;4923685;29;7219;-70
2022/11/09 10:03:13;;;;;;;;;;;;;;;25.17;45.40;94176.50;4929417;29;7776;-71
2022/11/09 10:05:57;;;;;;;;;;;;;;;25.18;45.70;94189.03;4915620;29;9326;-68
2022/11/09 10:09:00;;;;;;;;;;;;;;;25.19;45.40;94174.75;4927120;29;7142;-69
2022/11/09 10:11:59;;;;;;;;;;;;;;;25.17;45.46;94179.25;4928953;28;7259;-70
2022/11/09 10:18:40;;;;;;;;;;;;;;;25.17;45.96;94193.03;4946219;28;7349;-70
2022/11/09 10:21:50;;;;;;;;;;;;;;;25.19;45.58;94193.25;4916433;29;7103;-70
2022/11/09 10:24:22;;;;;;;;;;;;;;;25.17;45.17;94187.53;4937674;28;7372;-70
2022/11/09 10:26:55;;;;;;;;;;;;;;;25.17;45.38;94185.53;4929712;28;8876;-70
2022/11/09 10:29:23;;;;;;;;;;;;;;;25.19;45.09;94179.50;4947998;28;7408;-70
2022/11/09 10:32:32;;;;;;;;;;;;;;;25.19;45.01;94176.75;4926788;28;8172;-71
2022/11/09 10:35:33;;;;;;;;;;;;;;;25.19;45.14;94188.50;4914000;29;10449;-69
2022/11/09 10:38:20;;;;;;;;;;;;;;;25.18;45.91;94181.53;4923475;29;9012;-70
2022/11/09 10:40:57;;;;;;;;;;;;;;;25.19;45.78;94163.72;4929948;28;7276;-70
2022/11/09 10:43:23;;;;;;;;;;;;;;;25.18;45.42;94161.50;4916766;29;7238;-70
2022/11/09 10:46:03;;;;;;;;;;;;;;;25.17;45.34;94154.50;4933735;28;7153;-70
2022/11/09 10:48:36;;;;;;;;;;;;;;;25.18;45.68;94151.25;4931662;28;7305;-68
2022/11/09 10:51:07;;;;;;;;;;;;;;;25.21;45.12;94152.19;4932265;28;7686;-70
2022/11/09 10:53:34;;;;;;;;;;;;;;;25.20;45.55;94156.97;4912284;29;7597;-70
2022/11/09 10:56:21;;;;;;;;;;;;;;;25.19;45.68;94160.22;4929265;29;7303;-70
2022/11/09 10:58:53;;;;;;;;;;;;;;;25.19;45.47;94152.72;4929813;29;7144;-70
2022/11/09 11:01:35;;;;;;;;;;;;;;;25.21;44.89;94146.69;4922611;29;9086;-70
2022/11/09 11:04:25;;;;;;;;;;;;;;;25.16;45.86;94147.50;4925722;29;9339;-70
2022/11/09 11:07:17;;;;;;;;;;;;;;;25.11;45.42;94142.78;4920770;29;7247;-71
2022/11/09 11:09:44;;;;;;;;;;;;;;;25.10;45.88;94131.03;4915084;29;8413;-71
2022/11/09 11:12:21;;;;;;;;;;;;;;;25.10;46.58;94130.31;4923563;29;7097;-70
2022/11/09 11:14:47;;;;;;;;;;;;;;;25.03;46.82;94128.09;4913713;29;7168;-70
2022/11/09 11:17:37;;;;;;;;;;;;;;;24.98;46.91;94128.91;4912444;29;7367;-69
2022/11/09 11:20:30;;;;;;;;;;;;;;;24.98;46.34;94128.91;4911881;29;7391;-69
2022/11/09 11:23:13;;;;;;;;;;;;;;;24.97;47.00;94130.88;4916393;29;8406;-69
2022/11/09 11:25:54;;;;;;;;;;;;;;;25.02;46.79;94115.59;4928966;29;7234;-70
2022/11/09 11:28:56;;;;;;;;;;;;;;;25.06;46.26;94110.56;4916596;29;7088;-71
2022/11/09 11:31:34;;;;;;;;;;;;;;;25.10;46.42;94102.78;4930646;29;7229;-70
2022/11/09 11:34:15;;;;;;;;;;;;;;;25.11;46.28;94099.50;4935708;29;7743;-69
2022/11/09 11:37:04;;;;;;;;;;;;;;;25.14;46.51;94103.25;4929481;29;7265;-70
2022/11/09 11:39:48;;;;;;;;;;;;;;;25.14;46.44;94098.47;4929427;29;7273;-70
2022/11/09 11:42:48;;;;;;;;;;;;;;;25.16;45.97;94095.22;4918328;29;7031;-70
2022/11/09 11:45:17;;;;;;;;;;;;;;;25.15;46.72;94091.72;4932409;29;8344;-69
2022/11/09 11:48:20;;;;;;;;;;;;;;;25.17;46.48;94093.94;4921958;29;9018;-71
2022/11/09 11:51:35;;;;;;;;;;;;;;;25.15;45.76;94088.22;4902601;29;7418;-71
2022/11/09 11:54:18;;;;;;;;;;;;;;;25.17;46.57;94085.69;4861344;29;7070;-72
2022/11/09 11:57:30;;;;;;;;;;;;;;;25.20;46.52;94077.16;4845927;29;7524;-71
2022/11/09 12:00:08;;;;;;;;;;;;;;;25.16;46.45;94073.94;4805426;29;7052;-70
2022/11/09 12:03:07;;;;;;;;;;;;;;;25.18;46.17;94082.44;4806067;29;8858;-71
2022/11/09 12:06:09;;;;;;;;;;;;;;;25.19;46.68;94078.41;4805909;29;7277;-71
2022/11/09 12:09:12;;;;;;;;;;;;;;;25.17;46.33;94074.69;4805090;29;9015;-71
2022/11/09 12:12:29;;;;;;;;;;;;;;;25.16;46.06;94071.19;4787524;30;7235;-70
2022/11/09 12:15:14;;;;;;;;;;;;;;;25.15;45.90;94069.69;4772824;30;7283;-72
2022/11/09 12:18:18;;;;;;;;;;;;;;;25.17;45.63;94066.41;4787853;30;7207;-69
2022/11/09 12:21:31;;;;;;;;;;;;;;;25.18;46.08;94067.94;4787559;30;7296;-71
2022/11/09 12:24:13;;;;;;;;;;;;;;;25.18;46.34;94065.16;4772744;30;7295;-69
2022/11/09 12:26:57;;;;;;;;;;;;;;;25.18;45.46;94067.94;4785434;30;8986;-71
2022/11/09 12:29:40;;;;;;;;;;;;;;;25.17;45.98;94074.69;4782083;29;8452;-71
2022/11/09 12:32:43;;;;;;;;;;;;;;;25.16;45.59;94078.72;4804165;29;9422;-71
2022/11/09 12:35:28;;;;;;;;;;;;;;;25.18;45.59;94073.44;4794035;29;7305;-70
2022/11/09 12:38:15;;;;;;;;;;;;;;;25.14;46.26;94084.72;4892342;29;7066;-71
2022/11/09 12:41:26;;;;;;;;;;;;;;;25.15;46.54;94080.72;4898540;29;7110;-71
2022/11/09 12:44:15;;;;;;;;;;;;;;;25.15;46.75;94085.47;4888711;29;7272;-71
2022/11/09 12:47:09;;;;;;;;;;;;;;;25.12;47.03;94075.50;4926879;29;8234;-67
2022/11/09 12:49:40;;;;;;;;;;;;;;;25.06;46.53;94077.53;4926943;29;7469;-70
2022/11/09 12:52:15;;;;;;;;;;;;;;;25.05;46.89;94078.81;4931229;28;7109;-71
2022/11/09 12:54:49;;;;;;;;;;;;;;;25.05;47.15;94087.81;4933693;29;9001;-70
2022/11/09 12:57:25;;;;;;;;;;;;;;;25.04;46.84;94085.56;4917348;29;7252;-70
2022/11/09 13:00:01;;;;;;;;;;;;;;;25.07;46.52;94085.28;4915434;29;7889;-66
2022/11/09 13:02:32;;;;;;;;;;;;;;;25.08;47.14;94091.53;4908708;29;7925;-69
2022/11/09 13:05:36;;;;;;;;;;;;;;;25.11;46.37;94101.50;4911818;29;7105;-69
2022/11/09 13:08:09;;;;;;;;;;;;;;;25.11;45.94;94101.50;4880627;29;7293;-69
2022/11/09 13:10:44;;;;;;;;;;;;;;;25.15;46.11;94099.22;4880311;29;7307;-69
2022/11/09 13:13:10;;;;;;;;;;;;;;;25.19;45.92;94096.94;4852051;29;7042;-70
2022/11/09 13:15:58;;;;;;;;;;;;;;;25.20;45.32;94098.44;4874336;29;7229;-69
2022/11/09 13:19:01;;;;;;;;;;;;;;;25.22;45.48;94099.41;4876188;29;9148;-71
2022/11/09 13:21:38;;;;;;;;;;;;;;;25.22;45.52;94101.41;4806259;29;7353;-67
2022/11/09 13:24:30;;;;;;;;;;;;;;;25.19;45.82;94097.69;4819162;29;7567;-69
2022/11/09 13:27:00;;;;;;;;;;;;;;;25.18;45.58;94103.69;4822126;29;7203;-66
2022/11/09 13:29:42;;;;;;;;;;;;;;;25.20;45.11;94107.44;4806114;29;7122;-71
2022/11/09 13:32:28;;;;;;;;;;;;;;;25.23;45.28;94100.88;4819625;29;7044;-70
2022/11/09 13:34:56;;;;;;;;;;;;;;;25.23;45.58;94102.88;4821819;29;7581;-70
2022/11/09 13:37:41;;;;;;;;;;;;;;;25.23;45.59;94092.63;4827458;29;8235;-70
2022/11/09 13:44:28;;;;;;;;;;;;;;;25.24;45.46;94109.91;4830070;29;9825;-70
2022/11/09 13:47:24;;;;;;;;;;;;;;;25.21;45.49;94113.66;4863562;29;9113;-70
2022/11/09 13:49:51;;;;;;;;;;;;;;;25.20;45.96;94115.69;4862643;29;6923;-71
2022/11/09 13:52:53;;;;;;;;;;;;;;;25.21;45.29;94116.41;4848643;29;8987;-71
2022/11/09 13:55:45;;;;;;;;;;;;;;;25.19;45.30;94116.94;4873562;29;7157;-69
2022/11/09 13:58:36;;;;;;;;;;;;;;;25.18;45.41;94120.22;4883465;29;7290;-68